TNCA/AUA METAR and TAF weather

Enter ICAO airport designator
Station Type Date Time Source
TNCA METAR 2018/12/11 17:00 UTC NOAA

TNCA 111700Z 10018KT 9999 BKN023 29/23 Q1015 NOSIG


Station Type Date Time Source
TNCA Decoded METAR 2018/12/11 17:00 UTC NOAA

Queen Beatrix Airport, Aruba (TNCA) 12-30N 070-01W 33M
Dec 11, 2018 - 12:00 PM EST / 2018.12.11 1700 UTC
Wind: from the E (100 degrees) at 21 MPH (18 KT):0
Visibility: greater than 7 mile(s):0
Sky conditions: mostly cloudy
Temperature: 84 F (29 C)
Dew Point: 73 F (23 C)
Relative Humidity: 70%
Pressure (altimeter): 29.97 in. Hg (1015 hPa)
ob: TNCA 111700Z 10018KT 9999 BKN023 29/23 Q1015 NOSIG
cycle: 17

Station Type Date Time Source
TNCA TAF 2018/12/11 18:05 UTC NOAA

TAF TNCA 111800Z 1118/1218 10022KT 9999 FEW022


Example: see airport list